Tipton, CA (93272)

7:51 AM PST on February 09, 2016 (GMT -0800)
Irrigation Matters | | Change Station
CLOSE
Current Station
Personal Weather Station
Location: Tulare, CA
Elevation: 272 ft
Nearby Weather Stations

Elev 272 ft 36.15 °N, 119.33 °W | Updated 20 minutes ago

Clear
Clear
41.6 °F
Feels Like 42 °F
N
0.0
Wind Variable Wind from ENE
Gusts 1.0 mph

Today
High -- | Low -- °F
--% Chance of Precip.
Yesterday
High -- | Low -- °F
Precip. -- in
Pressure 30.30 in
Visibility 10.0 miles
Clouds Clear
Windchill 42 °F
Dew Point 40 °F
Humidity 95%
Rainfall 0.00 in
Snow Depth Not available.
6:51 AM 5:32 PM
New Moon, 1% visible
METAR KPTV 091456Z AUTO 00000KT 10SM CLR 04/02 A3025 RMK AO2 SLP258 T00440022 53008
Pressure 30.30 in
Visibility 10.0 miles
Clouds Clear
Windchill 42 °F
Dew Point 40 °F
Humidity 95%
Rainfall 0.00 in
Snow Depth Not available.
6:51 AM 5:32 PM
New Moon, 1% visible
METAR KPTV 091456Z AUTO 00000KT 10SM CLR 04/02 A3025 RMK AO2 SLP258 T00440022 53008

10-Day Weather Forecast

Almanac

Astronomy

Feb. 09, 2016 Rise Set
Actual Time
Civil Twilight
Nautical Twilight
Astronomical Twilight
Moon
Length of Visible Light
Length of Day
Tomorrow will be .
, % of the Moon is Illuminated

Today's Extremes

State Highs State Lows

Community

WunderPhotos

Upload Photos

1,891,628 photos uploaded!

WunderBlog® & News

Nearby

Air Quality

  Air Quality AQ Index Pollutant
Not available.

Snow Depth

Station Depth Elevation

Earthquake Activity

City Distance Mag. Time & Date
Minimum magnitude displayed is 2.5.

Coastal Water Temperatures

Place Temperature

Stations

Nearby Weather Stations

Station Location Temp. Windchill Dew Point Humidity Wind Precip. Elev Updated Type
                   

Watches & Warnings

There are currently no watches in effect.